Time;durP1;ratioP1;P1;durP2;ratioP2;P2;SDS_P1;SDS_P2;PMS_P1;PMS_P2;Temp;Humidity;BMP_temperature;BMP_pressure;BME280_temperature;BME280_humidity;BME280_pressure;Samples;Min_cycle;Max_cycle;Signal;HPM_P1;HPM_P2
2023/05/04 00:01:25;;;;;;;;;;;;;;;7.80;100.00;96300.50;5060519;28;19928;-73
2023/05/04 00:03:51;;;;;;;;;;;;;;;7.82;100.00;96296.91;5060571;28;19956;-73
2023/05/04 00:06:17;;;;;;;;;;;;;;;7.85;100.00;96286.47;5054110;28;19929;-74
2023/05/04 00:08:44;;;;;;;;;;;;;;;7.82;100.00;96291.75;5066473;28;19928;-74
2023/05/04 00:11:10;;;;;;;;;;;;;;;7.74;100.00;96302.41;5057643;28;19929;-73
2023/05/04 00:13:37;;;;;;;;;;;;;;;7.63;100.00;96285.72;5058651;28;19954;-73
2023/05/04 00:16:04;;;;;;;;;;;;;;;7.58;100.00;96301.41;5054111;28;20287;-73
2023/05/04 00:18:30;;;;;;;;;;;;;;;7.65;100.00;96295.09;5050342;28;20429;-73
2023/05/04 00:20:57;;;;;;;;;;;;;;;7.58;100.00;96291.09;5058714;28;19947;-73
2023/05/04 00:23:23;;;;;;;;;;;;;;;7.39;100.00;96285.03;5051113;28;19924;-73
2023/05/04 00:25:49;;;;;;;;;;;;;;;7.39;100.00;96282.47;5052260;28;19947;-73
2023/05/04 00:28:15;;;;;;;;;;;;;;;7.47;100.00;96286.38;5058919;28;19925;-73
2023/05/04 00:30:43;;;;;;;;;;;;;;;7.40;100.00;96279.81;5053667;28;19929;-73
2023/05/04 00:33:09;;;;;;;;;;;;;;;7.35;100.00;96279.19;5047629;28;19936;-73
2023/05/04 00:35:36;;;;;;;;;;;;;;;7.14;100.00;96280.91;5054539;28;20331;-73
2023/05/04 00:38:03;;;;;;;;;;;;;;;7.12;100.00;96277.56;5058116;28;19925;-73
2023/05/04 00:40:29;;;;;;;;;;;;;;;7.18;100.00;96273.88;5055018;28;20350;-73
2023/05/04 00:42:55;;;;;;;;;;;;;;;7.19;100.00;96280.69;5054621;28;19925;-73
2023/05/04 00:45:22;;;;;;;;;;;;;;;7.39;100.00;96274.75;5064363;28;19978;-73
2023/05/04 00:47:49;;;;;;;;;;;;;;;7.44;100.00;96278.78;5051636;28;19929;-74
2023/05/04 00:50:16;;;;;;;;;;;;;;;7.54;100.00;96270.66;5058642;28;19928;-73
2023/05/04 00:52:43;;;;;;;;;;;;;;;7.53;100.00;96275.00;5061434;28;19925;-73
2023/05/04 00:55:10;;;;;;;;;;;;;;;7.41;100.00;96278.91;5053342;28;20327;-73
2023/05/04 00:57:37;;;;;;;;;;;;;;;7.35;100.00;96274.03;5050656;28;20402;-73
2023/05/04 01:00:03;;;;;;;;;;;;;;;7.19;100.00;96273.84;5055565;28;19997;-73
2023/05/04 01:02:29;;;;;;;;;;;;;;;7.07;100.00;96276.06;5061873;28;19935;-73
2023/05/04 01:04:57;;;;;;;;;;;;;;;7.03;100.00;96276.19;5052246;28;19929;-73
2023/05/04 01:07:28;;;;;;;;;;;;;;;7.03;100.00;96271.03;5058646;28;19982;-73
2023/05/04 01:09:59;;;;;;;;;;;;;;;7.08;100.00;96275.16;5046276;28;19979;-73
2023/05/04 01:12:28;;;;;;;;;;;;;;;7.16;100.00;96266.22;5058345;28;19931;-74
2023/05/04 01:14:56;;;;;;;;;;;;;;;7.24;100.00;96269.31;5061141;28;19979;-73
2023/05/04 01:17:22;;;;;;;;;;;;;;;7.25;100.00;96265.00;5057947;28;19928;-73
2023/05/04 01:19:50;;;;;;;;;;;;;;;7.15;100.00;96267.09;5065418;28;19925;-73
2023/05/04 01:22:17;;;;;;;;;;;;;;;6.99;100.00;96260.91;5053055;28;19948;-73
2023/05/04 01:24:43;;;;;;;;;;;;;;;6.91;100.00;96263.81;5062622;28;19940;-73
2023/05/04 01:27:15;;;;;;;;;;;;;;;6.75;100.00;96258.44;5064664;28;19971;-73
2023/05/04 01:29:45;;;;;;;;;;;;;;;6.70;100.00;96259.50;5065464;28;20386;-73
2023/05/04 01:32:12;;;;;;;;;;;;;;;6.73;100.00;96267.13;5060913;28;19951;-73
2023/05/04 01:34:40;;;;;;;;;;;;;;;6.73;100.00;96265.38;5056950;28;19958;-73
2023/05/04 01:37:06;;;;;;;;;;;;;;;6.71;100.00;96269.75;5054858;28;20449;-73
2023/05/04 01:39:34;;;;;;;;;;;;;;;6.73;100.00;96274.84;5068992;28;19975;-73
2023/05/04 01:42:01;;;;;;;;;;;;;;;6.81;100.00;96266.81;5056542;28;19978;-73
2023/05/04 01:44:27;;;;;;;;;;;;;;;6.91;100.00;96273.28;5057060;28;20359;-73
2023/05/04 01:46:53;;;;;;;;;;;;;;;6.96;100.00;96276.50;5057053;28;19925;-73
2023/05/04 01:49:19;;;;;;;;;;;;;;;6.97;100.00;96273.88;5055190;28;19933;-73
2023/05/04 01:51:48;;;;;;;;;;;;;;;6.99;100.00;96278.94;5066731;28;19928;-73
2023/05/04 01:54:14;;;;;;;;;;;;;;;7.01;100.00;96272.00;5055309;28;19940;-73
2023/05/04 01:56:42;;;;;;;;;;;;;;;6.92;100.00;96274.94;5050292;28;19947;-73
2023/05/04 01:59:08;;;;;;;;;;;;;;;7.00;100.00;96270.31;5059011;28;19932;-73
2023/05/04 02:01:35;;;;;;;;;;;;;;;7.06;100.00;96267.50;5065213;28;20386;-73
2023/05/04 02:04:01;;;;;;;;;;;;;;;7.08;100.00;96264.84;5059629;28;19928;-73
2023/05/04 02:06:27;;;;;;;;;;;;;;;6.98;100.00;96265.25;5055968;28;19924;-74
2023/05/04 02:08:54;;;;;;;;;;;;;;;6.94;100.00;96262.84;5050901;28;20362;-74
2023/05/04 02:11:20;;;;;;;;;;;;;;;6.85;100.00;96268.38;5062599;28;20016;-73
2023/05/04 02:13:48;;;;;;;;;;;;;;;6.67;100.00;96267.34;5054170;28;20410;-74
2023/05/04 02:16:14;;;;;;;;;;;;;;;6.49;100.00;96258.63;5056544;28;19928;-73
2023/05/04 02:18:41;;;;;;;;;;;;;;;6.59;100.00;96264.25;5070821;28;19973;-73
2023/05/04 02:21:07;;;;;;;;;;;;;;;6.66;100.00;96258.78;5059071;28;19925;-74
2023/05/04 02:23:33;;;;;;;;;;;;;;;6.72;100.00;96252.59;5058475;28;19974;-74
2023/05/04 02:26:00;;;;;;;;;;;;;;;6.55;100.00;96254.06;5060192;28;19947;-73
2023/05/04 02:28:26;;;;;;;;;;;;;;;6.48;100.00;96250.06;5054006;28;20276;-73
2023/05/04 02:30:54;;;;;;;;;;;;;;;6.39;100.00;96259.88;5055179;28;20349;-73
2023/05/04 02:33:20;;;;;;;;;;;;;;;6.41;100.00;96255.50;5067828;28;19925;-73
2023/05/04 02:35:46;;;;;;;;;;;;;;;6.48;100.00;96260.34;5061679;28;19971;-73
2023/05/04 02:38:13;;;;;;;;;;;;;;;6.50;100.00;96261.13;5066037;28;19974;-73
2023/05/04 02:40:40;;;;;;;;;;;;;;;6.32;100.00;96253.28;5067952;28;19928;-73
2023/05/04 02:43:06;;;;;;;;;;;;;;;6.34;100.00;96259.19;5060276;28;19990;-73
2023/05/04 02:45:32;;;;;;;;;;;;;;;6.17;100.00;96257.28;5065156;28;19928;-73
2023/05/04 02:48:00;;;;;;;;;;;;;;;6.12;100.00;96254.03;5054975;28;19978;-73
2023/05/04 02:50:26;;;;;;;;;;;;;;;6.02;100.00;96254.38;5055718;28;19925;-73
2023/05/04 02:52:52;;;;;;;;;;;;;;;6.09;100.00;96254.16;5061906;28;20411;-73
2023/05/04 02:55:19;;;;;;;;;;;;;;;6.18;100.00;96253.81;5068234;28;20341;-73
2023/05/04 02:57:45;;;;;;;;;;;;;;;6.14;100.00;96250.50;5063905;28;19925;-73
2023/05/04 03:00:12;;;;;;;;;;;;;;;5.92;100.00;96255.59;5059007;28;19964;-73
2023/05/04 03:02:38;;;;;;;;;;;;;;;5.85;100.00;96256.69;5056471;28;20338;-73
2023/05/04 03:05:06;;;;;;;;;;;;;;;5.77;100.00;96253.56;5039020;28;19933;-74
2023/05/04 03:07:32;;;;;;;;;;;;;;;5.69;100.00;96247.88;5057020;28;19929;-74
2023/05/04 03:09:59;;;;;;;;;;;;;;;5.63;100.00;96250.66;5054097;28;19928;-74
2023/05/04 03:12:25;;;;;;;;;;;;;;;5.63;100.00;96240.38;5070705;28;19925;-73
2023/05/04 03:14:51;;;;;;;;;;;;;;;5.66;100.00;96242.84;5050871;28;19929;-74
2023/05/04 03:17:17;;;;;;;;;;;;;;;5.66;100.00;96251.38;5060542;28;19970;-74
2023/05/04 03:19:44;;;;;;;;;;;;;;;5.67;100.00;96249.66;5060947;28;19987;-74
2023/05/04 03:22:11;;;;;;;;;;;;;;;5.75;100.00;96252.81;5045212;28;19971;-74
2023/05/04 03:24:38;;;;;;;;;;;;;;;5.72;100.00;96246.03;5048828;28;20011;-74
2023/05/04 03:27:05;;;;;;;;;;;;;;;5.64;100.00;96242.91;5055105;28;19939;-75
2023/05/04 03:29:31;;;;;;;;;;;;;;;5.64;100.00;96242.91;5067049;28;19924;-75
2023/05/04 03:31:57;;;;;;;;;;;;;;;5.63;100.00;96246.34;5063502;28;19951;-75
2023/05/04 03:34:23;;;;;;;;;;;;;;;5.73;100.00;96244.28;5068315;28;19932;-75
2023/05/04 03:36:50;;;;;;;;;;;;;;;5.78;100.00;96238.13;5059732;28;19925;-75
2023/05/04 03:39:17;;;;;;;;;;;;;;;5.82;100.00;96242.25;5065366;28;20317;-75
2023/05/04 03:41:44;;;;;;;;;;;;;;;5.86;100.00;96235.25;5063950;28;20039;-74
2023/05/04 03:44:10;;;;;;;;;;;;;;;5.83;100.00;96235.38;5064033;28;19929;-75
2023/05/04 03:46:36;;;;;;;;;;;;;;;5.79;100.00;96234.63;5064726;28;19928;-75
2023/05/04 03:49:03;;;;;;;;;;;;;;;5.77;100.00;96231.28;5060411;28;19986;-75
2023/05/04 03:51:29;;;;;;;;;;;;;;;5.74;100.00;96240.81;5064597;28;19936;-75
2023/05/04 03:53:55;;;;;;;;;;;;;;;5.73;100.00;96239.16;5054814;28;20354;-75
2023/05/04 03:56:23;;;;;;;;;;;;;;;5.77;100.00;96244.13;5054377;28;19973;-75
2023/05/04 03:58:49;;;;;;;;;;;;;;;5.81;100.00;96237.13;5063909;28;19928;-75
2023/05/04 04:01:15;;;;;;;;;;;;;;;5.88;100.00;96227.47;5061189;28;19929;-75
2023/05/04 04:03:41;;;;;;;;;;;;;;;5.92;100.00;96221.31;5065716;28;19925;-75
2023/05/04 04:06:09;;;;;;;;;;;;;;;5.91;100.00;96224.81;5057398;28;19932;-75
2023/05/04 04:08:35;;;;;;;;;;;;;;;5.86;100.00;96222.41;5066712;28;19925;-75
2023/05/04 04:11:02;;;;;;;;;;;;;;;5.67;100.00;96224.78;5050804;28;19924;-74
2023/05/04 04:13:29;;;;;;;;;;;;;;;5.57;100.00;96229.44;5067245;28;19925;-74
2023/05/04 04:15:56;;;;;;;;;;;;;;;5.55;100.00;96215.78;5055952;28;19979;-75
2023/05/04 04:18:22;;;;;;;;;;;;;;;5.50;100.00;96220.25;5066600;28;19932;-75
2023/05/04 04:20:49;;;;;;;;;;;;;;;5.51;100.00;96221.09;5061312;28;19928;-75
2023/05/04 04:23:17;;;;;;;;;;;;;;;5.47;100.00;96217.81;5061881;28;19948;-75
2023/05/04 04:25:43;;;;;;;;;;;;;;;5.41;100.00;96220.56;5063719;28;19951;-75
2023/05/04 04:28:09;;;;;;;;;;;;;;;5.46;100.00;96220.44;5056197;28;19925;-75
2023/05/04 04:30:37;;;;;;;;;;;;;;;5.48;100.00;96226.34;5067187;28;19929;-75
2023/05/04 04:33:03;;;;;;;;;;;;;;;5.48;100.00;96219.47;5062028;28;20447;-75
2023/05/04 04:35:31;;;;;;;;;;;;;;;5.53;100.00;96215.03;5064296;28;19978;-75
2023/05/04 04:37:57;;;;;;;;;;;;;;;5.51;100.00;96219.38;5062119;28;19924;-75
2023/05/04 04:40:23;;;;;;;;;;;;;;;5.48;100.00;96218.63;5061229;28;20391;-73
2023/05/04 04:42:51;;;;;;;;;;;;;;;5.45;100.00;96208.47;5067262;28;19993;-73
2023/05/04 04:45:17;;;;;;;;;;;;;;;5.45;100.00;96222.16;5064979;28;19932;-74
2023/05/04 04:47:45;;;;;;;;;;;;;;;5.44;100.00;96220.47;5065265;28;19929;-74
2023/05/04 04:50:11;;;;;;;;;;;;;;;5.40;100.00;96216.34;5064428;28;19974;-75
2023/05/04 04:52:40;;;;;;;;;;;;;;;5.67;100.00;96213.66;5062809;28;19929;-73
2023/05/04 04:55:06;;;;;;;;;;;;;;;5.83;100.00;96218.22;5067854;28;19924;-75
2023/05/04 04:57:32;;;;;;;;;;;;;;;5.93;100.00;96211.03;5067156;28;19925;-75
2023/05/04 04:59:59;;;;;;;;;;;;;;;6.07;100.00;96211.31;5066817;28;20344;-75
2023/05/04 05:02:26;;;;;;;;;;;;;;;6.17;100.00;96214.41;5058244;28;19932;-74
2023/05/04 05:04:54;;;;;;;;;;;;;;;6.18;100.00;96210.09;5056113;28;20383;-74
2023/05/04 05:07:20;;;;;;;;;;;;;;;6.43;100.00;96205.66;5067457;28;19925;-74
2023/05/04 05:09:47;;;;;;;;;;;;;;;6.47;100.00;96209.78;5064991;28;20066;-71
2023/05/04 05:12:13;;;;;;;;;;;;;;;6.54;100.00;96208.66;5068902;28;19925;-72
2023/05/04 05:14:39;;;;;;;;;;;;;;;6.64;100.00;96216.84;5067843;28;19928;-72
2023/05/04 05:17:05;;;;;;;;;;;;;;;6.76;100.00;96215.50;5069090;28;19929;-72
2023/05/04 05:19:35;;;;;;;;;;;;;;;6.91;100.00;96217.47;5070219;28;19936;-72
2023/05/04 05:22:03;;;;;;;;;;;;;;;7.06;100.00;96217.72;5070594;28;19925;-72
2023/05/04 05:24:29;;;;;;;;;;;;;;;7.17;100.00;96220.69;5072578;28;19982;-72
2023/05/04 05:26:56;;;;;;;;;;;;;;;7.30;100.00;96210.69;5064994;28;20044;-72
2023/05/04 05:29:23;;;;;;;;;;;;;;;7.39;100.00;96211.16;5057274;28;19924;-73
2023/05/04 05:31:49;;;;;;;;;;;;;;;7.66;100.00;96214.25;5067145;28;19935;-71
2023/05/04 05:34:15;;;;;;;;;;;;;;;7.69;100.00;96213.28;5072744;28;19974;-72
2023/05/04 05:36:42;;;;;;;;;;;;;;;7.72;100.00;96220.91;5058404;28;19925;-72
2023/05/04 05:39:10;;;;;;;;;;;;;;;7.76;100.00;96222.44;5060646;28;19970;-72
2023/05/04 05:41:36;;;;;;;;;;;;;;;7.85;100.00;96216.84;5067027;28;19975;-72
2023/05/04 05:44:02;;;;;;;;;;;;;;;8.00;100.00;96211.00;5072025;28;19925;-72
2023/05/04 05:46:29;;;;;;;;;;;;;;;8.14;100.00;96217.28;5068746;28;19974;-73
2023/05/04 05:48:55;;;;;;;;;;;;;;;8.30;100.00;96214.81;5054948;28;19955;-72
2023/05/04 05:51:21;;;;;;;;;;;;;;;7.96;100.00;96214.63;5065001;28;19931;-72
2023/05/04 05:53:47;;;;;;;;;;;;;;;7.68;100.00;96220.19;5065874;28;19951;-73
2023/05/04 05:56:15;;;;;;;;;;;;;;;7.94;100.00;96213.88;5063621;28;19982;-73
2023/05/04 05:58:42;;;;;;;;;;;;;;;8.29;100.00;96224.31;5061235;28;19928;-72
2023/05/04 06:01:08;;;;;;;;;;;;;;;8.52;100.00;96222.41;5065504;28;19925;-73
2023/05/04 06:03:34;;;;;;;;;;;;;;;8.72;100.00;96212.81;5068610;28;20360;-72
2023/05/04 06:06:00;;;;;;;;;;;;;;;8.96;100.00;96218.53;5055279;28;19970;-72
2023/05/04 06:08:27;;;;;;;;;;;;;;;9.18;100.00;96215.72;5053759;28;19978;-72
2023/05/04 06:10:55;;;;;;;;;;;;;;;9.43;100.00;96217.06;5063004;28;19925;-71
2023/05/04 06:13:22;;;;;;;;;;;;;;;9.15;100.00;96217.63;5069645;28;19932;-75
2023/05/04 06:15:52;;;;;;;;;;;;;;;9.14;100.00;96224.53;5064529;28;19928;-74
2023/05/04 06:18:18;;;;;;;;;;;;;;;9.20;100.00;96218.25;5070341;28;20015;-75
2023/05/04 06:20:45;;;;;;;;;;;;;;;9.38;100.00;96213.88;5064091;28;19931;-75
2023/05/04 06:23:13;;;;;;;;;;;;;;;9.78;100.00;96206.63;5060597;28;19925;-73
2023/05/04 06:25:39;;;;;;;;;;;;;;;10.07;100.00;96202.50;5062674;28;19951;-73
2023/05/04 06:28:05;;;;;;;;;;;;;;;10.51;100.00;96199.28;5063242;28;19974;-73
2023/05/04 06:30:33;;;;;;;;;;;;;;;10.80;100.00;96200.22;5069271;28;20544;-72
2023/05/04 06:32:59;;;;;;;;;;;;;;;10.94;100.00;96197.69;5067175;28;19979;-74
2023/05/04 06:35:26;;;;;;;;;;;;;;;11.22;100.00;96202.09;5064776;28;19932;-74
2023/05/04 06:37:52;;;;;;;;;;;;;;;11.32;100.00;96195.47;5060881;28;19948;-70
2023/05/04 06:40:18;;;;;;;;;;;;;;;11.54;100.00;96197.63;5058136;28;19936;-70
2023/05/04 06:42:45;;;;;;;;;;;;;;;11.69;100.00;96200.22;5068811;28;19978;-70
2023/05/04 06:45:11;;;;;;;;;;;;;;;11.39;100.00;96194.16;5065039;28;19925;-71
2023/05/04 06:47:39;;;;;;;;;;;;;;;11.55;100.00;96198.44;5059082;28;19971;-71
2023/05/04 06:50:09;;;;;;;;;;;;;;;11.39;100.00;96198.53;5062921;28;20433;-71
2023/05/04 06:52:35;;;;;;;;;;;;;;;11.46;100.00;96193.78;5063391;28;19964;-71
2023/05/04 06:55:01;;;;;;;;;;;;;;;11.56;100.00;96197.50;5061021;28;20465;-71
2023/05/04 06:57:28;;;;;;;;;;;;;;;11.66;100.00;96198.63;5060317;28;19978;-71
2023/05/04 06:59:55;;;;;;;;;;;;;;;11.59;100.00;96192.97;5065524;28;19928;-71
2023/05/04 07:02:21;;;;;;;;;;;;;;;11.83;100.00;96195.91;5069374;28;19929;-71
2023/05/04 07:04:48;;;;;;;;;;;;;;;12.06;100.00;96194.47;5066670;28;19978;-71
2023/05/04 07:07:15;;;;;;;;;;;;;;;12.19;100.00;96193.69;5062712;28;19928;-71
2023/05/04 07:09:42;;;;;;;;;;;;;;;12.08;100.00;96194.38;5063300;28;19972;-71
2023/05/04 07:12:08;;;;;;;;;;;;;;;12.22;100.00;96196.94;5060250;28;19928;-71
2023/05/04 07:14:34;;;;;;;;;;;;;;;12.49;100.00;96193.53;5059366;28;19925;-69
2023/05/04 07:17:01;;;;;;;;;;;;;;;12.67;100.00;96191.53;5069024;28;19928;-70
2023/05/04 07:19:27;;;;;;;;;;;;;;;12.58;100.00;96190.38;5062924;28;20383;-70
2023/05/04 07:21:55;;;;;;;;;;;;;;;12.82;100.00;96196.56;5053982;28;19928;-71
2023/05/04 07:24:21;;;;;;;;;;;;;;;13.05;100.00;96196.81;5058173;28;19932;-70
2023/05/04 07:26:48;;;;;;;;;;;;;;;13.43;100.00;96193.50;5048744;28;20453;-70
2023/05/04 07:29:14;;;;;;;;;;;;;;;13.76;100.00;96203.38;5062793;28;19933;-70
2023/05/04 07:31:41;;;;;;;;;;;;;;;14.08;100.00;96193.31;5058767;28;19925;-70
2023/05/04 07:34:07;;;;;;;;;;;;;;;14.54;98.57;96197.09;5064629;28;19972;-73
2023/05/04 07:36:34;;;;;;;;;;;;;;;14.83;97.95;96189.75;5061528;28;19936;-73
2023/05/04 07:39:02;;;;;;;;;;;;;;;15.23;92.82;96192.88;5064175;28;20042;-73
2023/05/04 07:41:28;;;;;;;;;;;;;;;15.45;90.77;96187.69;5058695;28;19931;-74
2023/05/04 07:43:54;;;;;;;;;;;;;;;15.24;91.07;96186.72;5062512;28;19932;-74
2023/05/04 07:46:21;;;;;;;;;;;;;;;15.61;90.04;96182.16;5062449;28;19931;-74
2023/05/04 07:48:48;;;;;;;;;;;;;;;15.29;89.72;96181.16;5063682;28;19982;-75
2023/05/04 07:51:15;;;;;;;;;;;;;;;15.16;89.82;96186.44;5058813;28;19929;-73
2023/05/04 07:53:42;;;;;;;;;;;;;;;15.76;93.57;96179.34;5064376;28;20657;-73
2023/05/04 07:56:11;;;;;;;;;;;;;;;16.20;85.87;96178.50;5061977;28;20629;-73
2023/05/04 07:58:37;;;;;;;;;;;;;;;16.22;84.07;96179.22;5058993;28;20360;-74
2023/05/04 08:01:03;;;;;;;;;;;;;;;16.33;82.44;96179.19;5069028;28;20023;-76
2023/05/04 08:03:31;;;;;;;;;;;;;;;16.63;83.11;96169.84;5067756;28;20011;-76
2023/05/04 08:05:57;;;;;;;;;;;;;;;16.97;82.06;96170.59;5069966;28;19958;-75
2023/05/04 08:08:23;;;;;;;;;;;;;;;16.98;77.55;96168.78;5068350;28;19970;-75
2023/05/04 08:10:49;;;;;;;;;;;;;;;17.22;75.85;96165.97;5063021;28;20276;-76
2023/05/04 08:13:17;;;;;;;;;;;;;;;17.16;68.65;96162.88;5061483;28;19932;-76
2023/05/04 08:15:43;;;;;;;;;;;;;;;17.09;75.71;96166.13;5063038;28;20002;-75
2023/05/04 08:18:09;;;;;;;;;;;;;;;17.03;71.90;96164.84;5062953;28;20429;-77
2023/05/04 08:20:36;;;;;;;;;;;;;;;17.03;73.97;96167.47;5065868;28;20008;-77
2023/05/04 08:23:03;;;;;;;;;;;;;;;17.07;73.75;96166.25;5060158;28;20331;-77
2023/05/04 08:25:30;;;;;;;;;;;;;;;17.31;69.79;96160.75;5066681;28;19925;-77
2023/05/04 08:27:56;;;;;;;;;;;;;;;17.47;68.91;96160.34;5060804;28;19978;-77
2023/05/04 08:30:24;;;;;;;;;;;;;;;17.72;67.05;96153.81;5066729;28;19986;-77
2023/05/04 08:32:51;;;;;;;;;;;;;;;17.75;67.35;96155.38;5062538;28;19961;-77
2023/05/04 08:35:18;;;;;;;;;;;;;;;17.91;69.71;96153.13;5061953;28;19929;-76
2023/05/04 08:37:44;;;;;;;;;;;;;;;18.01;71.65;96158.41;5061451;28;19928;-76
2023/05/04 08:40:11;;;;;;;;;;;;;;;18.23;69.78;96160.00;5059340;28;19925;-77
2023/05/04 08:42:39;;;;;;;;;;;;;;;18.51;63.73;96161.84;5065573;28;20306;-75
2023/05/04 08:45:05;;;;;;;;;;;;;;;18.60;62.71;96154.94;5060444;28;20333;-77
2023/05/04 08:47:33;;;;;;;;;;;;;;;18.62;64.01;96153.03;5062923;28;20426;-76
2023/05/04 08:49:59;;;;;;;;;;;;;;;18.60;66.54;96147.09;5065694;28;19978;-77
2023/05/04 08:52:26;;;;;;;;;;;;;;;18.65;70.70;96149.28;5062366;28;19970;-77
2023/05/04 08:54:53;;;;;;;;;;;;;;;18.85;62.82;96151.84;5063636;28;20345;-75
2023/05/04 08:57:20;;;;;;;;;;;;;;;19.17;70.53;96142.84;5062520;28;20018;-77
2023/05/04 08:59:49;;;;;;;;;;;;;;;18.96;66.01;96143.00;5064414;28;19978;-76
2023/05/04 09:02:18;;;;;;;;;;;;;;;18.93;69.25;96148.50;5066089;28;19978;-77
2023/05/04 09:04:46;;;;;;;;;;;;;;;18.38;70.59;96143.72;5056432;28;19928;-77
2023/05/04 09:07:12;;;;;;;;;;;;;;;18.51;67.99;96140.88;5058759;28;20507;-76
2023/05/04 09:09:39;;;;;;;;;;;;;;;18.87;65.39;96141.19;5057947;28;20019;-75
2023/05/04 09:12:05;;;;;;;;;;;;;;;18.84;67.73;96142.31;5061815;28;19928;-77
2023/05/04 09:14:32;;;;;;;;;;;;;;;18.84;68.11;96141.47;5065193;28;19978;-77
2023/05/04 09:16:58;;;;;;;;;;;;;;;19.14;60.24;96137.03;5067500;28;19998;-77
2023/05/04 09:19:32;;;;;;;;;;;;;;;19.36;55.01;96126.22;5055753;28;19932;-77
2023/05/04 09:21:59;;;;;;;;;;;;;;;19.40;65.41;96132.84;5054893;28;19933;-77
2023/05/04 09:24:26;;;;;;;;;;;;;;;19.72;56.67;96129.03;5065398;28;19970;-76
2023/05/04 09:26:52;;;;;;;;;;;;;;;19.58;60.01;96133.78;5058578;28;20454;-77
2023/05/04 09:29:20;;;;;;;;;;;;;;;19.62;64.00;96126.47;5064099;28;20062;-77
2023/05/04 09:31:48;;;;;;;;;;;;;;;19.32;61.97;96136.19;5060897;28;19931;-77
2023/05/04 09:34:14;;;;;;;;;;;;;;;19.66;59.32;96137.53;5062325;28;20340;-77
2023/05/04 09:36:41;;;;;;;;;;;;;;;19.56;55.84;96137.50;5061819;28;19925;-77
2023/05/04 09:39:13;;;;;;;;;;;;;;;19.70;55.13;96134.44;5054739;28;20012;-76
2023/05/04 09:41:40;;;;;;;;;;;;;;;20.17;53.11;96134.41;5054276;28;19932;-76
2023/05/04 09:44:17;;;;;;;;;;;;;;;20.34;49.76;96142.47;5062297;28;19924;-76
2023/05/04 09:46:51;;;;;;;;;;;;;;;20.40;47.48;96134.00;5065589;28;20387;-76
2023/05/04 09:49:19;;;;;;;;;;;;;;;20.56;48.74;96131.53;5053009;28;19929;-77
2023/05/04 09:51:47;;;;;;;;;;;;;;;20.50;46.64;96129.50;5065234;28;19924;-76
2023/05/04 09:54:16;;;;;;;;;;;;;;;20.84;56.40;96129.69;5050394;28;19933;-77
2023/05/04 09:56:46;;;;;;;;;;;;;;;20.90;47.41;96126.44;5053243;28;19971;-77
2023/05/04 09:59:13;;;;;;;;;;;;;;;20.68;43.24;96126.88;5049117;28;19929;-76
2023/05/04 10:01:40;;;;;;;;;;;;;;;20.82;44.57;96120.28;5050742;28;20089;-76
2023/05/04 10:04:06;;;;;;;;;;;;;;;21.00;43.46;96115.81;5058826;28;19924;-76
2023/05/04 10:06:33;;;;;;;;;;;;;;;21.13;50.51;96116.25;5061069;28;20016;-76
2023/05/04 10:09:00;;;;;;;;;;;;;;;20.64;44.24;96122.91;5067326;28;19929;-76
2023/05/04 10:11:28;;;;;;;;;;;;;;;20.93;45.59;96117.41;5067943;28;20011;-75
2023/05/04 10:13:55;;;;;;;;;;;;;;;20.84;44.88;96116.53;5058700;28;19924;-76
2023/05/04 10:16:27;;;;;;;;;;;;;;;20.81;46.17;96119.47;5058571;28;20663;-75
2023/05/04 10:19:19;;;;;;;;;;;;;;;20.79;44.82;96109.06;5066179;28;20422;-75
2023/05/04 10:21:52;;;;;;;;;;;;;;;20.63;43.68;96106.28;5072426;28;19928;-76
2023/05/04 10:24:43;;;;;;;;;;;;;;;21.24;42.21;96113.38;5069485;28;20428;-76
2023/05/04 10:27:12;;;;;;;;;;;;;;;21.30;40.62;96104.03;5062390;28;20350;-76
2023/05/04 10:29:39;;;;;;;;;;;;;;;21.43;42.21;96108.91;5047586;28;20465;-75
2023/05/04 10:32:06;;;;;;;;;;;;;;;21.31;39.80;96103.03;5048381;28;19925;-76
2023/05/04 10:34:33;;;;;;;;;;;;;;;20.97;42.64;96100.34;5071647;28;19925;-76
2023/05/04 10:37:01;;;;;;;;;;;;;;;21.12;42.79;96090.06;5054269;28;19925;-76
2023/05/04 10:39:29;;;;;;;;;;;;;;;20.95;42.35;96089.97;5065518;28;19925;-75
2023/05/04 10:42:00;;;;;;;;;;;;;;;21.61;39.92;96088.59;5063027;28;19960;-76
2023/05/04 10:44:28;;;;;;;;;;;;;;;21.83;46.52;96091.66;5072696;28;19967;-76
2023/05/04 10:46:58;;;;;;;;;;;;;;;21.96;41.92;96076.25;5064370;28;20003;-76
2023/05/04 10:49:24;;;;;;;;;;;;;;;22.00;39.51;96077.56;5061258;28;19925;-76
2023/05/04 10:51:51;;;;;;;;;;;;;;;21.93;38.90;96079.19;5068918;28;20332;-76
2023/05/04 10:54:18;;;;;;;;;;;;;;;22.13;43.69;96075.28;5061839;28;20012;-77
2023/05/04 10:56:44;;;;;;;;;;;;;;;21.84;39.37;96065.16;5065104;28;20007;-77
2023/05/04 10:59:11;;;;;;;;;;;;;;;21.86;40.72;96068.44;5061125;28;20437;-77
2023/05/04 11:01:43;;;;;;;;;;;;;;;22.14;42.27;96061.16;5066512;28;20341;-77
2023/05/04 11:04:17;;;;;;;;;;;;;;;22.05;37.01;96064.72;5067194;28;19971;-77
2023/05/04 11:06:44;;;;;;;;;;;;;;;21.99;42.02;96060.94;5060032;28;19974;-77
2023/05/04 11:09:12;;;;;;;;;;;;;;;21.91;46.39;96054.78;5066334;28;19928;-77
2023/05/04 11:11:38;;;;;;;;;;;;;;;21.89;36.16;96052.31;5058885;28;19935;-75
2023/05/04 11:14:06;;;;;;;;;;;;;;;21.46;40.71;96045.38;5063404;28;21324;-75
2023/05/04 11:16:33;;;;;;;;;;;;;;;21.81;40.43;96040.94;5058902;28;19929;-76
2023/05/04 11:19:08;;;;;;;;;;;;;;;21.39;38.88;96047.78;5067297;28;19939;-76
2023/05/04 11:21:34;;;;;;;;;;;;;;;21.85;37.16;96045.72;5059492;28;19959;-77
2023/05/04 11:24:01;;;;;;;;;;;;;;;21.58;35.59;96053.81;5062305;28;20011;-75
2023/05/04 11:26:27;;;;;;;;;;;;;;;21.44;35.00;96042.06;5058396;28;19971;-77
2023/05/04 11:28:54;;;;;;;;;;;;;;;21.59;34.94;96044.94;5065541;28;20019;-77
2023/05/04 11:31:21;;;;;;;;;;;;;;;21.51;34.47;96040.47;5058933;28;19978;-75
2023/05/04 11:33:47;;;;;;;;;;;;;;;21.85;32.18;96040.44;5069535;28;19952;-74
2023/05/04 11:36:15;;;;;;;;;;;;;;;21.97;33.41;96033.88;5060783;28;20011;-74
2023/05/04 11:38:41;;;;;;;;;;;;;;;21.92;32.75;96041.47;5061558;28;19976;-74
2023/05/04 11:41:09;;;;;;;;;;;;;;;21.97;32.05;96033.88;5065050;28;20341;-74
2023/05/04 11:43:35;;;;;;;;;;;;;;;21.98;28.10;96035.53;5064421;28;19925;-74
2023/05/04 11:46:02;;;;;;;;;;;;;;;21.48;27.77;96030.22;5063726;28;19932;-74
2023/05/04 11:48:28;;;;;;;;;;;;;;;21.64;33.20;96040.84;5055886;28;19998;-74
2023/05/04 11:50:56;;;;;;;;;;;;;;;21.62;33.98;96029.66;5059256;28;19975;-75
2023/05/04 11:53:24;;;;;;;;;;;;;;;21.73;36.53;96024.09;5061749;28;19924;-75
2023/05/04 11:55:52;;;;;;;;;;;;;;;21.73;33.83;96028.53;5059896;28;20330;-75
2023/05/04 11:58:23;;;;;;;;;;;;;;;21.73;32.78;96025.91;5058867;28;20310;-75
2023/05/04 12:00:54;;;;;;;;;;;;;;;21.78;32.28;96028.06;5058590;28;19924;-75
2023/05/04 12:03:25;;;;;;;;;;;;;;;21.75;31.14;96023.91;5059435;28;20011;-75
2023/05/04 12:05:52;;;;;;;;;;;;;;;21.59;30.16;96022.06;5062225;28;19978;-75
2023/05/04 12:08:22;;;;;;;;;;;;;;;21.60;33.77;96023.69;5058551;28;19982;-75
2023/05/04 12:10:50;;;;;;;;;;;;;;;21.59;31.03;96018.59;5062398;28;19933;-75
2023/05/04 12:13:17;;;;;;;;;;;;;;;21.27;32.72;96020.03;5061161;28;20456;-75
2023/05/04 12:15:43;;;;;;;;;;;;;;;21.26;34.41;96013.94;5062424;28;20007;-75
2023/05/04 12:18:20;;;;;;;;;;;;;;;21.50;32.94;96017.72;5060768;28;19929;-75
2023/05/04 12:20:47;;;;;;;;;;;;;;;21.62;32.07;96015.66;5062366;28;19998;-75
2023/05/04 12:23:13;;;;;;;;;;;;;;;21.52;32.85;96014.94;5042547;28;20253;-75
2023/05/04 12:25:39;;;;;;;;;;;;;;;21.37;40.25;96015.53;5044601;28;19929;-75
2023/05/04 12:28:07;;;;;;;;;;;;;;;21.68;35.97;96017.63;5044558;28;20387;-75
2023/05/04 12:30:33;;;;;;;;;;;;;;;21.61;39.38;96008.69;5050368;28;20397;-74
2023/05/04 12:32:59;;;;;;;;;;;;;;;21.45;37.15;96002.38;5061349;28;19928;-74
2023/05/04 12:35:25;;;;;;;;;;;;;;;21.65;36.57;96002.13;5067971;28;19931;-74
2023/05/04 12:37:52;;;;;;;;;;;;;;;21.55;35.26;96001.44;5068098;28;19925;-74
2023/05/04 12:40:18;;;;;;;;;;;;;;;21.34;35.76;95993.94;5063526;28;20365;-74
2023/05/04 12:42:44;;;;;;;;;;;;;;;21.40;39.28;95993.31;5049932;28;19970;-75
2023/05/04 12:45:12;;;;;;;;;;;;;;;21.48;37.49;95990.72;5049575;28;19925;-75